Scarborough, United Kingdom
Current Conditions -  °F | °C
As of 10:50 PM on Thursday 18 Dec 2014 (Local Time) from EGXV Reporting Station
Broken Clouds Broken Clouds  
Wind Chill: 10°   Ceiling: 4100
Heat Index: 10°   Visibility: NA
Dew Point:   Wind: 15mph
Humidity: 87%   Direction: 260°W
Pressure: 29.56"   Gusts: NA
Location:  54.28°N, 0.4°W
Report Text: EGXV 182250Z AUTO 26013KT //// FEW016/// BKN041/// 10/08 Q1001 RERA
Loading
Personal Weather Stations






























Interactive Weather Map New forecast layout! Learn more

10-Day Weather Forecast

Advertisements
Track Severe Weather on mobile